createdAt,value
2023-04-29T00:00:25.049Z,11.25
2023-04-29T00:02:52.048Z,11.08
2023-04-29T00:05:18.852Z,11.19
2023-04-29T00:07:45.469Z,11.16
2023-04-29T00:10:14.679Z,11.05
2023-04-29T00:12:41.735Z,11.00
2023-04-29T00:15:08.879Z,11.10
2023-04-29T00:17:36.688Z,11.12
2023-04-29T00:20:04.114Z,10.99
2023-04-29T00:22:30.646Z,11.09
2023-04-29T00:24:57.125Z,10.97
2023-04-29T00:27:23.529Z,10.95
2023-04-29T00:29:50.197Z,11.06
2023-04-29T00:32:17.016Z,10.99
2023-04-29T00:34:46.205Z,10.98
2023-04-29T00:37:12.679Z,11.07
2023-04-29T00:39:39.315Z,11.00
2023-04-29T00:42:06.075Z,11.02
2023-04-29T00:44:32.554Z,10.98
2023-04-29T00:46:59.278Z,10.94
2023-04-29T00:49:27.728Z,10.85
2023-04-29T00:51:57.797Z,10.85
2023-04-29T00:54:24.370Z,10.83
2023-04-29T00:56:51.928Z,10.82
2023-04-29T00:59:18.711Z,10.74
2023-04-29T01:01:45.458Z,10.69
2023-04-29T01:04:13.606Z,10.67
2023-04-29T01:06:54.574Z,10.71
2023-04-29T01:09:47.264Z,10.63
2023-04-29T01:12:25.238Z,10.62
2023-04-29T01:15:23.960Z,10.69
2023-04-29T01:18:05.563Z,10.71
2023-04-29T01:20:33.474Z,10.60
2023-04-29T01:22:59.863Z,10.65
2023-04-29T01:25:27.178Z,10.57
2023-04-29T01:28:13.641Z,10.55
2023-04-29T01:30:49.906Z,10.63
2023-04-29T01:33:27.735Z,10.60
2023-04-29T01:36:13.416Z,10.59
2023-04-29T01:38:47.303Z,10.51
2023-04-29T01:41:23.607Z,10.50
2023-04-29T01:43:56.780Z,10.51
2023-04-29T01:46:24.107Z,10.58
2023-04-29T01:48:54.982Z,10.51
2023-04-29T01:51:21.837Z,10.48
2023-04-29T01:53:48.634Z,10.56
2023-04-29T01:56:15.137Z,10.43
2023-04-29T01:59:08.275Z,10.48
2023-04-29T02:01:53.233Z,10.53
2023-04-29T02:04:20.408Z,10.46
2023-04-29T02:06:46.860Z,10.50
2023-04-29T02:09:13.297Z,10.41
2023-04-29T02:11:46.752Z,10.44
2023-04-29T02:14:13.869Z,10.45
2023-04-29T02:16:40.435Z,10.44
2023-04-29T02:19:07.308Z,10.38
2023-04-29T02:21:35.241Z,10.29
2023-04-29T02:24:02.523Z,10.32
2023-04-29T02:26:28.938Z,10.27
2023-04-29T02:28:57.221Z,10.16
2023-04-29T02:31:23.819Z,10.16
2023-04-29T02:33:50.888Z,10.03
2023-04-29T02:36:18.236Z,9.90
2023-04-29T02:38:44.710Z,9.89
2023-04-29T02:41:16.643Z,9.93
2023-04-29T02:43:43.951Z,9.88
2023-04-29T02:46:10.818Z,9.85
2023-04-29T02:48:37.783Z,9.81
2023-04-29T02:51:04.644Z,9.79
2023-04-29T02:53:31.152Z,9.80
2023-04-29T02:55:57.733Z,9.71
2023-04-29T02:58:24.558Z,9.75
2023-04-29T03:00:51.219Z,9.72
2023-04-29T03:03:17.942Z,9.64
2023-04-29T03:05:44.559Z,9.55
2023-04-29T03:08:11.193Z,9.58
2023-04-29T03:10:39.262Z,9.55
2023-04-29T03:13:07.773Z,9.59
2023-04-29T03:15:35.393Z,9.57
2023-04-29T03:18:04.673Z,9.58
2023-04-29T03:20:33.633Z,9.41
2023-04-29T03:23:02.536Z,9.45
2023-04-29T03:25:29.143Z,9.39
2023-04-29T03:27:56.046Z,9.37
2023-04-29T03:30:22.717Z,9.35
2023-04-29T03:32:52.239Z,9.24
2023-04-29T03:35:18.972Z,9.30
2023-04-29T03:38:14.015Z,9.27
2023-04-29T03:40:40.733Z,9.31
2023-04-29T03:43:09.278Z,9.21
2023-04-29T03:45:35.994Z,9.32
2023-04-29T03:48:03.691Z,9.31
2023-04-29T03:50:30.815Z,9.17
2023-04-29T03:52:57.821Z,9.18
2023-04-29T03:55:24.262Z,9.21
2023-04-29T03:57:51.156Z,9.16
2023-04-29T04:00:18.807Z,9.24
2023-04-29T04:02:49.794Z,9.22
2023-04-29T04:05:19.385Z,9.20
2023-04-29T04:07:50.008Z,9.20
2023-04-29T04:10:42.466Z,9.19
2023-04-29T04:13:20.357Z,9.20
2023-04-29T04:15:52.136Z,9.21
2023-04-29T04:18:18.971Z,9.12
2023-04-29T04:20:45.491Z,9.22
2023-04-29T04:23:12.188Z,9.27
2023-04-29T04:25:39.198Z,9.14
2023-04-29T04:28:23.880Z,9.12
2023-04-29T04:30:58.678Z,9.16
2023-04-29T04:33:26.209Z,9.01
2023-04-29T04:35:53.143Z,8.97
2023-04-29T04:38:19.572Z,8.99
2023-04-29T04:40:46.917Z,9.00
2023-04-29T04:43:34.932Z,9.02
2023-04-29T04:46:14.229Z,8.93
2023-04-29T04:48:51.104Z,8.97
2023-04-29T04:51:19.269Z,8.87
2023-04-29T04:53:45.764Z,8.76
2023-04-29T04:56:18.977Z,8.84
2023-04-29T04:58:46.523Z,8.85
2023-04-29T05:01:14.155Z,8.76
2023-04-29T05:03:40.929Z,8.77
2023-04-29T05:06:07.747Z,8.77
2023-04-29T05:08:34.677Z,8.85
2023-04-29T05:11:03.703Z,8.81
2023-04-29T05:13:30.256Z,8.86
2023-04-29T05:15:56.764Z,8.90
2023-04-29T05:18:26.741Z,8.94
2023-04-29T05:20:53.247Z,8.88
2023-04-29T05:23:20.018Z,8.80
2023-04-29T05:25:47.042Z,8.83
2023-04-29T05:28:13.846Z,8.88
2023-04-29T05:30:41.703Z,8.78
2023-04-29T05:33:08.489Z,8.78
2023-04-29T05:35:34.883Z,8.70
2023-04-29T05:38:02.601Z,8.73
2023-04-29T05:40:38.082Z,8.80
2023-04-29T05:43:39.682Z,8.69
2023-04-29T05:46:06.449Z,8.67
2023-04-29T05:48:32.890Z,8.69
2023-04-29T05:50:59.437Z,8.72
2023-04-29T05:53:26.270Z,8.71
2023-04-29T05:55:53.246Z,8.71
2023-04-29T05:58:21.300Z,8.75
2023-04-29T06:00:49.336Z,8.74
2023-04-29T06:03:20.855Z,8.69
2023-04-29T06:05:52.285Z,8.77
2023-04-29T06:08:34.095Z,8.80
2023-04-29T06:11:23.252Z,8.80
2023-04-29T06:13:49.999Z,8.78
2023-04-29T06:16:17.840Z,8.78
2023-04-29T06:18:44.300Z,8.82
2023-04-29T06:21:10.710Z,8.98
2023-04-29T06:23:37.134Z,9.04
2023-04-29T06:26:09.515Z,9.02
2023-04-29T06:28:35.984Z,8.99
2023-04-29T06:31:02.834Z,8.94
2023-04-29T06:33:30.373Z,8.98
2023-04-29T06:35:57.244Z,9.06
2023-04-29T06:38:53.513Z,9.17
2023-04-29T06:41:38.780Z,9.16
2023-04-29T06:44:16.793Z,9.17
2023-04-29T06:46:52.719Z,9.40
2023-04-29T06:49:26.869Z,9.48
2023-04-29T06:51:53.952Z,9.54
2023-04-29T06:54:20.423Z,9.49
2023-04-29T06:56:50.092Z,9.67
2023-04-29T06:59:17.492Z,9.77
2023-04-29T07:01:44.978Z,9.93
2023-04-29T07:04:12.773Z,10.11
2023-04-29T07:06:39.361Z,10.23
2023-04-29T07:09:06.619Z,10.30
2023-04-29T07:11:33.519Z,10.35
2023-04-29T07:14:00.043Z,10.30
2023-04-29T07:16:30.084Z,10.29
2023-04-29T07:18:56.553Z,10.19
2023-04-29T07:21:22.968Z,10.27
2023-04-29T07:23:49.462Z,10.31
2023-04-29T07:26:17.415Z,10.23
2023-04-29T07:28:45.716Z,10.12
2023-04-29T07:31:15.161Z,10.14
2023-04-29T07:33:41.632Z,10.32
2023-04-29T07:36:10.932Z,10.47
2023-04-29T07:38:37.378Z,10.49
2023-04-29T07:41:06.852Z,10.60
2023-04-29T07:43:33.894Z,10.65
2023-04-29T07:46:00.372Z,10.58
2023-04-29T07:48:28.011Z,10.66
2023-04-29T07:50:54.705Z,10.72
2023-04-29T07:53:21.682Z,10.83
2023-04-29T07:55:50.898Z,10.82
2023-04-29T07:58:18.826Z,11.06
2023-04-29T08:00:45.506Z,11.27
2023-04-29T08:03:12.291Z,11.37
2023-04-29T08:05:39.231Z,11.35
2023-04-29T08:08:06.725Z,11.61
2023-04-29T08:10:33.161Z,11.60
2023-04-29T08:13:00.433Z,11.76
2023-04-29T08:15:28.266Z,11.97
2023-04-29T08:17:54.789Z,12.08
2023-04-29T08:20:21.467Z,11.78
2023-04-29T08:22:47.998Z,11.72
2023-04-29T08:25:14.393Z,11.69
2023-04-29T08:27:40.925Z,11.95
2023-04-29T08:30:08.264Z,11.97
2023-04-29T08:32:35.346Z,12.21
2023-04-29T08:35:03.091Z,12.12
2023-04-29T08:37:29.495Z,12.19
2023-04-29T08:39:55.977Z,12.13
2023-04-29T08:42:33.786Z,12.16
2023-04-29T08:45:01.908Z,12.43
2023-04-29T08:47:34.135Z,12.68
2023-04-29T08:50:05.380Z,12.63
2023-04-29T08:52:32.846Z,12.55
2023-04-29T08:55:02.710Z,12.67
2023-04-29T08:57:31.705Z,12.83
2023-04-29T09:00:01.107Z,12.69
2023-04-29T09:02:28.091Z,12.47
2023-04-29T09:05:04.820Z,12.38
2023-04-29T09:07:32.068Z,12.27
2023-04-29T09:09:59.545Z,12.15
2023-04-29T09:12:26.176Z,12.02
2023-04-29T09:14:52.715Z,12.02
2023-04-29T09:17:21.291Z,11.95
2023-04-29T09:19:47.709Z,12.05
2023-04-29T09:22:14.088Z,12.06
2023-04-29T09:24:40.820Z,11.99
2023-04-29T09:27:08.038Z,11.95
2023-04-29T09:29:36.539Z,11.94
2023-04-29T09:32:19.450Z,12.08
2023-04-29T09:34:46.050Z,12.29
2023-04-29T09:37:27.829Z,12.33
2023-04-29T09:39:54.760Z,12.49
2023-04-29T09:42:21.129Z,12.55
2023-04-29T09:44:47.722Z,12.43
2023-04-29T09:47:14.794Z,12.55
2023-04-29T09:49:43.021Z,12.48
2023-04-29T09:52:16.822Z,12.68
2023-04-29T09:54:44.312Z,12.55
2023-04-29T09:57:12.457Z,12.65
2023-04-29T09:59:40.345Z,12.80
2023-04-29T10:02:09.391Z,12.83
2023-04-29T10:04:40.324Z,12.88
2023-04-29T10:07:08.440Z,13.39
2023-04-29T10:09:38.143Z,13.72
2023-04-29T10:12:07.626Z,13.90
2023-04-29T10:14:48.956Z,13.74
2023-04-29T10:17:24.118Z,14.02
2023-04-29T10:20:05.643Z,14.31
2023-04-29T10:22:49.223Z,14.66
2023-04-29T10:25:17.308Z,14.80
2023-04-29T10:27:45.040Z,14.29
2023-04-29T10:30:13.830Z,14.09
2023-04-29T10:32:50.489Z,14.06
2023-04-29T10:35:20.431Z,14.49
2023-04-29T10:37:48.886Z,14.57
2023-04-29T10:40:46.591Z,14.36
2023-04-29T10:43:13.685Z,14.24
2023-04-29T10:45:40.642Z,14.35
2023-04-29T10:48:14.559Z,14.34
2023-04-29T10:50:47.095Z,14.58
2023-04-29T10:53:14.869Z,14.50
2023-04-29T10:55:41.865Z,14.45
2023-04-29T10:58:39.242Z,14.21
2023-04-29T11:01:07.863Z,14.00
2023-04-29T11:03:48.713Z,13.96
2023-04-29T11:06:15.859Z,13.78
2023-04-29T11:08:43.337Z,13.82
2023-04-29T11:11:10.006Z,13.84
2023-04-29T11:13:40.533Z,14.13
2023-04-29T11:16:08.754Z,14.58
2023-04-29T11:19:04.117Z,14.53
2023-04-29T11:21:32.525Z,14.32
2023-04-29T11:24:01.063Z,14.29
2023-04-29T11:26:28.091Z,14.39
2023-04-29T11:28:56.387Z,14.79
2023-04-29T11:31:28.992Z,14.95
2023-04-29T11:33:55.552Z,15.00
2023-04-29T11:36:22.194Z,14.87
2023-04-29T11:38:48.680Z,14.60
2023-04-29T11:41:15.749Z,14.64
2023-04-29T11:43:43.578Z,14.86
2023-04-29T11:46:14.574Z,14.90
2023-04-29T11:48:47.695Z,14.74
2023-04-29T11:51:15.845Z,14.43
2023-04-29T11:53:42.381Z,14.11
2023-04-29T11:56:10.556Z,14.10
2023-04-29T11:58:37.474Z,14.04
2023-04-29T12:01:04.565Z,14.02
2023-04-29T12:03:32.912Z,14.12
2023-04-29T12:06:01.901Z,14.12
2023-04-29T12:08:30.249Z,13.89
2023-04-29T12:10:58.287Z,14.03
2023-04-29T12:13:28.117Z,14.20
2023-04-29T12:15:56.119Z,14.22
2023-04-29T12:18:23.360Z,14.37
2023-04-29T12:20:54.663Z,14.33
2023-04-29T12:23:23.240Z,14.52
2023-04-29T12:25:57.724Z,15.04
2023-04-29T12:28:24.779Z,15.65
2023-04-29T12:30:53.844Z,15.79
2023-04-29T12:33:27.339Z,15.72
2023-04-29T12:35:58.924Z,15.34
2023-04-29T12:38:27.699Z,15.31
2023-04-29T12:40:56.475Z,15.41
2023-04-29T12:43:30.362Z,15.31
2023-04-29T12:46:12.944Z,15.25
2023-04-29T12:48:41.547Z,15.21
2023-04-29T12:51:10.091Z,14.76
2023-04-29T12:53:37.141Z,15.13
2023-04-29T12:56:04.140Z,15.41
2023-04-29T12:58:31.487Z,15.16
2023-04-29T13:00:59.240Z,14.76
2023-04-29T13:03:26.801Z,14.54
2023-04-29T13:05:54.680Z,14.39
2023-04-29T13:08:21.208Z,14.16
2023-04-29T13:10:47.668Z,14.13
2023-04-29T13:13:14.078Z,14.12
2023-04-29T13:15:40.504Z,14.24
2023-04-29T13:18:07.250Z,14.26
2023-04-29T13:20:40.482Z,14.22
2023-04-29T13:23:08.628Z,14.00
2023-04-29T13:25:35.354Z,13.99
2023-04-29T13:28:05.306Z,14.02
2023-04-29T13:30:32.105Z,13.97
2023-04-29T13:33:04.366Z,14.12
2023-04-29T13:35:38.273Z,14.02
2023-04-29T13:38:05.326Z,14.23
2023-04-29T13:40:31.744Z,14.27
2023-04-29T13:43:06.062Z,14.20
2023-04-29T13:45:41.583Z,14.24
2023-04-29T13:48:25.922Z,14.12
2023-04-29T13:51:37.296Z,14.25
2023-04-29T13:59:30.689Z,14.34
2023-04-29T14:03:58.670Z,14.43
2023-04-29T14:06:25.279Z,14.52
2023-04-29T14:08:51.768Z,14.60
2023-04-29T14:11:19.498Z,14.59
2023-04-29T14:13:45.892Z,14.49
2023-04-29T14:16:12.371Z,14.67
2023-04-29T14:18:38.794Z,14.60
2023-04-29T14:21:05.423Z,14.51
2023-04-29T14:23:31.953Z,14.30
2023-04-29T14:26:16.617Z,14.38
2023-04-29T14:28:44.802Z,14.58
2023-04-29T14:31:13.692Z,14.57
2023-04-29T14:33:40.559Z,14.61
2023-04-29T14:36:07.576Z,14.53
2023-04-29T14:38:34.276Z,14.47
2023-04-29T14:41:00.686Z,14.35
2023-04-29T14:43:28.813Z,14.36
2023-04-29T14:45:55.703Z,14.37
2023-04-29T14:48:22.252Z,14.33
2023-04-29T14:50:49.149Z,14.30
2023-04-29T14:53:16.012Z,14.16
2023-04-29T14:55:42.822Z,14.08
2023-04-29T14:58:10.233Z,14.34
2023-04-29T15:00:36.834Z,14.74
2023-04-29T15:03:05.134Z,15.12
2023-04-29T15:05:31.893Z,15.40
2023-04-29T15:08:00.031Z,15.65
2023-04-29T15:10:27.239Z,15.80
2023-04-29T15:12:54.401Z,15.43
2023-04-29T15:15:21.946Z,15.36
2023-04-29T15:17:48.631Z,15.86
2023-04-29T15:20:16.283Z,15.89
2023-04-29T15:22:42.731Z,16.04
2023-04-29T15:25:09.887Z,15.92
2023-04-29T15:27:37.697Z,15.89
2023-04-29T15:30:07.751Z,15.95
2023-04-29T15:32:34.440Z,15.70
2023-04-29T15:35:06.601Z,15.79
2023-04-29T15:37:33.304Z,15.64
2023-04-29T15:40:00.753Z,15.60
2023-04-29T15:42:28.393Z,15.76
2023-04-29T15:44:54.837Z,15.84
2023-04-29T15:47:21.792Z,15.93
2023-04-29T15:49:50.276Z,15.95
2023-04-29T15:52:16.673Z,15.88
2023-04-29T15:54:43.038Z,15.92
2023-04-29T15:57:09.742Z,16.10
2023-04-29T15:59:36.204Z,16.04
2023-04-29T16:02:03.698Z,16.00
2023-04-29T16:04:31.682Z,15.80
2023-04-29T16:06:58.322Z,15.55
2023-04-29T16:09:24.732Z,15.61
2023-04-29T16:11:53.599Z,15.51
2023-04-29T16:14:19.989Z,15.34
2023-04-29T16:16:46.586Z,15.42
2023-04-29T16:19:13.488Z,15.48
2023-04-29T16:21:39.929Z,15.50
2023-04-29T16:24:07.753Z,15.46
2023-04-29T16:26:35.597Z,15.40
2023-04-29T16:29:02.141Z,15.23
2023-04-29T16:31:29.282Z,15.16
2023-04-29T16:33:57.440Z,15.08
2023-04-29T16:36:24.541Z,15.08
2023-04-29T16:38:51.486Z,15.16
2023-04-29T16:41:17.900Z,15.23
2023-04-29T16:43:44.399Z,15.01
2023-04-29T16:46:10.868Z,15.03
2023-04-29T16:48:37.509Z,15.03
2023-04-29T16:51:04.495Z,14.88
2023-04-29T16:53:31.324Z,14.79
2023-04-29T16:55:57.710Z,14.69
2023-04-29T16:58:24.164Z,14.61
2023-04-29T17:00:50.842Z,14.68
2023-04-29T17:03:17.642Z,14.63
2023-04-29T17:05:44.134Z,14.56
2023-04-29T17:08:10.770Z,14.53
2023-04-29T17:10:37.296Z,14.45
2023-04-29T17:13:03.703Z,14.42
2023-04-29T17:15:30.177Z,14.45
2023-04-29T17:17:56.685Z,14.35
2023-04-29T17:20:23.091Z,14.04
2023-04-29T17:22:49.793Z,14.06
2023-04-29T17:25:16.219Z,13.95
2023-04-29T17:27:46.026Z,13.85
2023-04-29T17:30:12.891Z,13.69
2023-04-29T17:32:39.673Z,13.66
2023-04-29T17:35:08.017Z,13.52
2023-04-29T17:37:35.257Z,13.38
2023-04-29T17:40:02.653Z,13.29
2023-04-29T17:42:29.238Z,13.16
2023-04-29T17:44:55.712Z,12.96
2023-04-29T17:47:23.256Z,12.96
2023-04-29T17:49:51.912Z,12.82
2023-04-29T17:52:21.278Z,12.67
2023-04-29T17:54:50.750Z,12.71
2023-04-29T17:57:17.246Z,12.54
2023-04-29T17:59:43.622Z,12.39
2023-04-29T18:02:10.082Z,12.32
2023-04-29T18:04:37.341Z,12.27
2023-04-29T18:07:04.022Z,12.20
2023-04-29T18:09:30.510Z,12.10
2023-04-29T18:11:56.894Z,12.05
2023-04-29T18:14:23.283Z,11.98
2023-04-29T18:16:49.780Z,12.00
2023-04-29T18:19:16.386Z,11.80
2023-04-29T18:21:42.837Z,11.79
2023-04-29T18:24:09.252Z,11.65
2023-04-29T18:26:35.805Z,11.57
2023-04-29T18:29:02.335Z,11.50
2023-04-29T18:31:28.909Z,11.49
2023-04-29T18:33:55.391Z,11.45
2023-04-29T18:36:23.566Z,11.36
2023-04-29T18:38:50.518Z,11.32
2023-04-29T18:41:16.989Z,11.39
2023-04-29T18:43:43.533Z,11.17
2023-04-29T18:46:10.157Z,11.14
2023-04-29T18:48:38.195Z,10.97
2023-04-29T18:51:05.991Z,10.88
2023-04-29T18:53:32.740Z,10.79
2023-04-29T18:55:59.194Z,10.73
2023-04-29T18:58:28.552Z,10.56
2023-04-29T19:00:57.540Z,10.61
2023-04-29T19:03:24.087Z,10.47
2023-04-29T19:05:50.712Z,10.32
2023-04-29T19:08:17.140Z,10.32
2023-04-29T19:10:44.405Z,10.32
2023-04-29T19:13:11.394Z,10.21
2023-04-29T19:15:38.453Z,10.09
2023-04-29T19:18:05.027Z,10.09
2023-04-29T19:20:31.992Z,10.01
2023-04-29T19:22:58.818Z,9.85
2023-04-29T19:25:28.209Z,9.71
2023-04-29T19:27:54.889Z,9.70
2023-04-29T19:30:21.331Z,9.79
2023-04-29T19:32:48.417Z,9.73
2023-04-29T19:35:14.939Z,9.67
2023-04-29T19:37:41.337Z,9.69
2023-04-29T19:40:10.446Z,9.50
2023-04-29T19:42:37.862Z,9.50
2023-04-29T19:45:07.502Z,9.44
2023-04-29T19:47:34.742Z,9.41
2023-04-29T19:50:01.355Z,9.34
2023-04-29T19:52:27.792Z,9.31
2023-04-29T19:54:54.225Z,9.18
2023-04-29T19:57:20.665Z,9.16
2023-04-29T19:59:47.082Z,9.11
2023-04-29T20:02:13.677Z,9.07
2023-04-29T20:04:40.363Z,9.07
2023-04-29T20:07:06.786Z,9.15
2023-04-29T20:09:33.592Z,9.18
2023-04-29T20:12:02.644Z,8.97
2023-04-29T20:14:29.574Z,8.93
2023-04-29T20:16:57.586Z,8.98
2023-04-29T20:19:26.229Z,8.93
2023-04-29T20:21:52.806Z,8.94
2023-04-29T20:24:19.223Z,8.86
2023-04-29T20:26:46.371Z,8.88
2023-04-29T20:29:12.801Z,8.86
2023-04-29T20:31:39.232Z,8.74
2023-04-29T20:34:05.905Z,8.73
2023-04-29T20:36:32.413Z,8.67
2023-04-29T20:38:58.820Z,8.61
2023-04-29T20:41:27.928Z,8.60
2023-04-29T20:43:55.041Z,8.58
2023-04-29T20:46:24.035Z,8.52
2023-04-29T20:48:51.815Z,8.47
2023-04-29T20:51:18.248Z,8.37
2023-04-29T20:53:44.677Z,8.42
2023-04-29T20:56:11.154Z,8.45
2023-04-29T20:58:37.639Z,8.25
2023-04-29T21:01:04.465Z,8.22
2023-04-29T21:03:31.018Z,8.23
2023-04-29T21:05:57.475Z,8.17
2023-04-29T21:08:25.085Z,8.13
2023-04-29T21:10:51.686Z,8.05
2023-04-29T21:13:18.190Z,8.01
2023-04-29T21:15:47.884Z,8.00
2023-04-29T21:18:14.647Z,8.08
2023-04-29T21:20:41.114Z,7.98
2023-04-29T21:23:07.620Z,8.05
2023-04-29T21:25:34.202Z,8.00
2023-04-29T21:28:01.895Z,7.94
2023-04-29T21:30:28.670Z,7.88
2023-04-29T21:32:55.169Z,7.91
2023-04-29T21:35:21.699Z,7.96
2023-04-29T21:37:48.207Z,7.90
2023-04-29T21:40:14.755Z,7.88
2023-04-29T21:42:43.601Z,7.88
2023-04-29T21:45:12.752Z,7.88
2023-04-29T21:47:39.824Z,7.79
2023-04-29T21:50:07.825Z,7.72
2023-04-29T21:52:35.114Z,7.68
2023-04-29T21:55:03.540Z,7.55
2023-04-29T21:57:43.009Z,7.52
2023-04-29T22:00:33.079Z,7.57
2023-04-29T22:03:01.507Z,7.59
2023-04-29T22:05:28.192Z,7.52
2023-04-29T22:07:57.151Z,7.48
2023-04-29T22:10:23.567Z,7.42
2023-04-29T22:12:50.550Z,7.37
2023-04-29T22:15:28.318Z,7.31
2023-04-29T22:17:56.803Z,7.29
2023-04-29T22:20:23.548Z,7.29
2023-04-29T22:22:49.932Z,7.27
2023-04-29T22:25:16.477Z,7.18
2023-04-29T22:27:42.881Z,7.16
2023-04-29T22:30:09.661Z,7.12
2023-04-29T22:32:36.264Z,7.11
2023-04-29T22:35:03.043Z,7.03
2023-04-29T22:37:29.550Z,7.12
2023-04-29T22:39:56.818Z,7.06
2023-04-29T22:42:23.612Z,7.06
2023-04-29T22:44:50.459Z,6.97
2023-04-29T22:47:17.067Z,6.89
2023-04-29T22:49:43.520Z,6.98
2023-04-29T22:52:10.097Z,6.95
2023-04-29T22:54:36.648Z,6.90
2023-04-29T22:57:04.014Z,6.80
2023-04-29T22:59:30.687Z,6.77
2023-04-29T23:01:57.364Z,6.74
2023-04-29T23:04:24.582Z,6.75
2023-04-29T23:06:51.710Z,6.71
2023-04-29T23:09:18.177Z,6.68
2023-04-29T23:11:44.855Z,6.66
2023-04-29T23:14:11.228Z,6.65
2023-04-29T23:16:37.762Z,6.64
2023-04-29T23:19:04.960Z,6.59
2023-04-29T23:21:32.544Z,6.56
2023-04-29T23:23:58.985Z,6.58
2023-04-29T23:26:25.458Z,6.60
2023-04-29T23:28:51.902Z,6.60
2023-04-29T23:31:18.343Z,6.54
2023-04-29T23:33:44.840Z,6.50
2023-04-29T23:36:11.774Z,6.43
2023-04-29T23:38:38.196Z,6.42
2023-04-29T23:41:05.025Z,6.43
2023-04-29T23:43:32.044Z,6.38
2023-04-29T23:45:58.819Z,6.39
2023-04-29T23:48:25.305Z,6.34
2023-04-29T23:50:51.790Z,6.40
2023-04-29T23:53:18.547Z,6.34
2023-04-29T23:55:44.950Z,6.30
2023-04-29T23:58:11.372Z,6.21
